Terminal Aerodrome Forecast
Issued by NWS

Home | Current Version | Previous Version | Text Only | Print | Product List | Glossary On
Versions: 1 2 3 4 5 6 7 8 9 10 11 12 13 14 15 16 17 18 19 20 21
000
FTUS46 KPDT 011700
TAFYKM
TAF
KYKM 011735Z 0118/0218 VRB03KT 5SM BR SCT005 OVC020
     FM011900 16003KT 6SM -SHRA BR SCT009 BKN020 OVC035
     FM020200 30005KT P6SM SCT025 BKN200
     FM020600 30005KT P6SM SCT250
     FM021300 28003KT 6SM BR FEW005 OVC120=

USA.gov is the U.S. government's official web portal to all federal, state and local government web resources and services.